Time;durP1;ratioP1;P1;durP2;ratioP2;P2;SDS_P1;SDS_P2;PMS_P1;PMS_P2;Temp;Humidity;BMP_temperature;BMP_pressure;BME280_temperature;BME280_humidity;BME280_pressure;Samples;Min_cycle;Max_cycle;Signal;HPM_P1;HPM_P2
2023/08/10 00:02:04;;;;;;;;;;;16.50;73.60;;;;;;5076887;28;19912;-77
2023/08/10 00:04:31;;;;;;;;;;;16.60;73.70;;;;;;5094816;28;20302;-78
2023/08/10 00:06:56;;;;;;;;;;;16.60;73.70;;;;;;5094798;28;19923;-76
2023/08/10 00:09:23;;;;;;;;;;;16.60;73.70;;;;;;5076948;28;19912;-77
2023/08/10 00:11:48;;;;;;;;;;;16.60;73.80;;;;;;5094687;28;20291;-77
2023/08/10 00:14:14;;;;;;;;;;;16.60;73.80;;;;;;5094616;28;19912;-77
2023/08/10 00:16:40;;;;;;;;;;;16.60;73.70;;;;;;5094848;28;19912;-77
2023/08/10 00:19:05;;;;;;;;;;;16.60;73.70;;;;;;5094818;28;20375;-76
2023/08/10 00:21:31;;;;;;;;;;;16.60;73.80;;;;;;5076376;28;19958;-77
2023/08/10 00:23:57;;;;;;;;;;;16.60;73.80;;;;;;5093382;28;19965;-77
2023/08/10 00:26:23;;;;;;;;;;;16.60;73.80;;;;;;5094693;28;19916;-78
2023/08/10 00:28:50;;;;;;;;;;;16.60;73.80;;;;;;5076271;28;20283;-77
2023/08/10 00:31:16;;;;;;;;;;;16.60;73.80;;;;;;5076189;28;19992;-77
2023/08/10 00:33:41;;;;;;;;;;;16.60;73.80;;;;;;5076314;28;20002;-77
2023/08/10 00:36:09;;;;;;;;;;;16.60;73.90;;;;;;5094102;28;19924;-77
2023/08/10 00:38:35;;;;;;;;;;;16.60;73.90;;;;;;5094393;28;20372;-77
2023/08/10 00:41:01;;;;;;;;;;;16.60;74.00;;;;;;5094258;28;20399;-77
2023/08/10 00:43:29;;;;;;;;;;;16.60;74.00;;;;;;5094216;28;19977;-77
2023/08/10 00:45:54;;;;;;;;;;;16.70;74.00;;;;;;5075947;28;19919;-77
2023/08/10 00:48:21;;;;;;;;;;;16.60;74.00;;;;;;5076016;28;20375;-77
2023/08/10 00:50:47;;;;;;;;;;;16.70;74.10;;;;;;5094123;28;20375;-77
2023/08/10 00:53:13;;;;;;;;;;;16.70;74.10;;;;;;5093742;28;19923;-77
2023/08/10 00:55:40;;;;;;;;;;;16.70;74.10;;;;;;5093945;28;19935;-78
2023/08/10 00:58:06;;;;;;;;;;;16.60;74.10;;;;;;5090628;28;20044;-77
2023/08/10 01:00:31;;;;;;;;;;;16.60;74.20;;;;;;5092312;28;19916;-83
2023/08/10 01:02:57;;;;;;;;;;;16.60;74.30;;;;;;5098937;28;20576;-81
2023/08/10 01:05:23;;;;;;;;;;;16.70;74.30;;;;;;5080725;28;19912;-82
2023/08/10 01:07:58;;;;;;;;;;;16.60;74.30;;;;;;5099159;28;19916;-82
2023/08/10 01:10:42;;;;;;;;;;;16.70;74.40;;;;;;5080942;28;19944;-83
2023/08/10 01:13:12;;;;;;;;;;;16.60;74.40;;;;;;5080627;28;19919;-81
2023/08/10 01:15:43;;;;;;;;;;;16.60;74.40;;;;;;5080850;28;19916;-81
2023/08/10 01:18:12;;;;;;;;;;;16.60;74.50;;;;;;5099024;28;19912;-81
2023/08/10 01:20:39;;;;;;;;;;;16.60;74.50;;;;;;5080669;28;20050;-79
2023/08/10 01:23:05;;;;;;;;;;;16.60;74.50;;;;;;5062906;28;19916;-84
2023/08/10 01:25:30;;;;;;;;;;;16.60;74.60;;;;;;5099044;28;19912;-83
2023/08/10 01:27:56;;;;;;;;;;;16.60;74.60;;;;;;5079734;28;19912;-82
2023/08/10 01:30:22;;;;;;;;;;;16.60;74.60;;;;;;5099098;28;19912;-82
2023/08/10 01:32:50;;;;;;;;;;;16.60;74.60;;;;;;5098942;28;19922;-81
2023/08/10 01:35:18;;;;;;;;;;;16.60;74.70;;;;;;5080455;28;19959;-82
2023/08/10 01:37:45;;;;;;;;;;;16.60;74.70;;;;;;5080055;28;20006;-83
2023/08/10 01:40:13;;;;;;;;;;;16.60;74.70;;;;;;5098504;28;19919;-82
2023/08/10 01:42:43;;;;;;;;;;;16.60;74.70;;;;;;5080416;28;19912;-81
2023/08/10 01:45:09;;;;;;;;;;;16.60;74.80;;;;;;5098908;28;19912;-82
2023/08/10 01:47:47;;;;;;;;;;;16.60;74.80;;;;;;5077258;28;19942;-85
2023/08/10 01:50:15;;;;;;;;;;;16.60;74.90;;;;;;5080471;28;19911;-82
2023/08/10 01:52:48;;;;;;;;;;;16.60;74.90;;;;;;5075813;28;19960;-85
2023/08/10 01:55:14;;;;;;;;;;;16.60;75.00;;;;;;5077585;28;20019;-83
2023/08/10 01:57:43;;;;;;;;;;;16.50;75.00;;;;;;5076609;28;20256;-85
2023/08/10 02:00:09;;;;;;;;;;;16.50;75.10;;;;;;5076538;28;19913;-83
2023/08/10 02:02:35;;;;;;;;;;;16.50;75.20;;;;;;5077402;28;19913;-82
2023/08/10 02:05:01;;;;;;;;;;;16.40;75.30;;;;;;5076414;28;20011;-76
2023/08/10 02:07:26;;;;;;;;;;;16.40;75.30;;;;;;5077200;28;19988;-82
2023/08/10 02:09:52;;;;;;;;;;;16.40;75.30;;;;;;5076613;28;19920;-82
2023/08/10 02:12:17;;;;;;;;;;;16.40;75.40;;;;;;5077387;28;19913;-81
2023/08/10 02:14:43;;;;;;;;;;;16.40;75.50;;;;;;5076847;28;19917;-82
2023/08/10 02:17:08;;;;;;;;;;;16.40;75.50;;;;;;5076899;28;20368;-85
2023/08/10 02:19:34;;;;;;;;;;;16.30;75.60;;;;;;5076700;28;19913;-82
2023/08/10 02:21:59;;;;;;;;;;;16.30;75.70;;;;;;5076716;28;20058;-81
2023/08/10 02:24:25;;;;;;;;;;;16.30;75.80;;;;;;5076919;28;19919;-82
2023/08/10 02:26:51;;;;;;;;;;;16.20;75.80;;;;;;5078254;28;19912;-82
2023/08/10 02:29:16;;;;;;;;;;;16.20;75.90;;;;;;5076992;28;19916;-83
2023/08/10 02:31:41;;;;;;;;;;;16.10;76.00;;;;;;5076217;28;19924;-81
2023/08/10 02:34:08;;;;;;;;;;;16.10;76.10;;;;;;5076422;28;19920;-82
2023/08/10 02:36:33;;;;;;;;;;;16.00;76.20;;;;;;5078268;28;20394;-83
2023/08/10 02:39:00;;;;;;;;;;;16.00;76.30;;;;;;5075688;28;19912;-82
2023/08/10 02:41:26;;;;;;;;;;;15.90;76.30;;;;;;5077679;28;19924;-83
2023/08/10 02:43:52;;;;;;;;;;;15.90;76.40;;;;;;5077094;28;19913;-81
2023/08/10 02:46:17;;;;;;;;;;;15.90;76.50;;;;;;5076923;28;20342;-83
2023/08/10 02:48:43;;;;;;;;;;;15.90;76.60;;;;;;5081950;28;20012;-83
2023/08/10 02:51:09;;;;;;;;;;;15.80;76.60;;;;;;5082484;28;19912;-83
2023/08/10 02:53:34;;;;;;;;;;;15.80;76.60;;;;;;5095898;28;19938;-83
2023/08/10 02:56:00;;;;;;;;;;;15.90;76.60;;;;;;5099204;28;19996;-82
2023/08/10 02:58:25;;;;;;;;;;;15.80;76.60;;;;;;5100974;28;19916;-83
2023/08/10 03:00:51;;;;;;;;;;;15.90;76.70;;;;;;5101009;28;19919;-83
2023/08/10 03:03:17;;;;;;;;;;;15.80;76.70;;;;;;5083531;28;19912;-82
2023/08/10 03:05:42;;;;;;;;;;;15.80;76.70;;;;;;5101953;28;20356;-81
2023/08/10 03:08:08;;;;;;;;;;;15.80;76.70;;;;;;5084097;28;19967;-82
2023/08/10 03:10:33;;;;;;;;;;;15.80;76.70;;;;;;5102060;28;19912;-82
2023/08/10 03:12:59;;;;;;;;;;;15.80;76.70;;;;;;5082816;28;19912;-82
2023/08/10 03:15:24;;;;;;;;;;;15.90;76.70;;;;;;5083319;28;20265;-82
2023/08/10 03:17:50;;;;;;;;;;;15.90;77.30;;;;;;5083682;28;19915;-81
2023/08/10 03:20:16;;;;;;;;;;;15.90;76.70;;;;;;5102542;28;19918;-84
2023/08/10 03:22:43;;;;;;;;;;;15.90;76.60;;;;;;5101863;28;19912;-82
2023/08/10 03:25:09;;;;;;;;;;;15.90;76.60;;;;;;5083381;28;19912;-82
2023/08/10 03:27:35;;;;;;;;;;;15.90;76.60;;;;;;5083767;28;20268;-83
2023/08/10 03:30:00;;;;;;;;;;;16.00;76.70;;;;;;5082772;28;19913;-80
2023/08/10 03:32:26;;;;;;;;;;;16.00;76.70;;;;;;5100679;28;19916;-81
2023/08/10 03:34:52;;;;;;;;;;;16.00;76.70;;;;;;5082506;28;19969;-80
2023/08/10 03:37:17;;;;;;;;;;;16.00;76.70;;;;;;5100941;28;20367;-82
2023/08/10 03:39:43;;;;;;;;;;;16.00;76.70;;;;;;5083048;28;19912;-81
2023/08/10 03:42:08;;;;;;;;;;;16.00;76.70;;;;;;5097530;28;19959;-79
2023/08/10 03:44:34;;;;;;;;;;;16.00;76.70;;;;;;5100757;28;19963;-82
2023/08/10 03:46:59;;;;;;;;;;;16.00;76.80;;;;;;5082599;28;19912;-83
2023/08/10 03:49:27;;;;;;;;;;;16.00;76.80;;;;;;5081922;28;20313;-86
2023/08/10 03:51:52;;;;;;;;;;;16.00;76.70;;;;;;5096742;28;19924;-81
2023/08/10 03:54:18;;;;;;;;;;;16.00;76.70;;;;;;5082392;28;19969;-82
2023/08/10 03:56:43;;;;;;;;;;;16.00;76.70;;;;;;5081973;28;20014;-82
2023/08/10 03:59:09;;;;;;;;;;;16.10;76.70;;;;;;5099773;28;19912;-80
2023/08/10 04:01:35;;;;;;;;;;;16.10;76.80;;;;;;5100447;28;19935;-82
2023/08/10 04:04:00;;;;;;;;;;;16.10;76.80;;;;;;5082225;28;19912;-81
2023/08/10 04:06:26;;;;;;;;;;;16.10;76.80;;;;;;5100264;28;19946;-83
2023/08/10 04:08:53;;;;;;;;;;;16.10;76.70;;;;;;5082052;28;19949;-83
2023/08/10 04:11:19;;;;;;;;;;;16.10;76.80;;;;;;5097081;28;19923;-80
2023/08/10 04:13:46;;;;;;;;;;;16.10;76.80;;;;;;5081642;28;19912;-83
2023/08/10 04:16:11;;;;;;;;;;;16.10;76.70;;;;;;5081654;28;19916;-82
2023/08/10 04:18:37;;;;;;;;;;;16.10;76.70;;;;;;5081937;28;19912;-82
2023/08/10 04:21:02;;;;;;;;;;;16.10;76.70;;;;;;5082434;28;19912;-82
2023/08/10 04:23:28;;;;;;;;;;;16.10;76.70;;;;;;5082670;28;19912;-82
2023/08/10 04:25:53;;;;;;;;;;;16.10;76.70;;;;;;5081877;28;19919;-78
2023/08/10 04:28:19;;;;;;;;;;;16.10;76.80;;;;;;5095310;28;20437;-73
2023/08/10 04:30:44;;;;;;;;;;;16.10;76.90;;;;;;5076796;28;19926;-74
2023/08/10 04:33:10;;;;;;;;;;;16.10;76.90;;;;;;5094599;28;20191;-73
2023/08/10 04:35:35;;;;;;;;;;;16.10;77.00;;;;;;5076715;28;19959;-73
2023/08/10 04:38:01;;;;;;;;;;;16.10;77.00;;;;;;5076440;28;19912;-74
2023/08/10 04:40:26;;;;;;;;;;;16.10;76.90;;;;;;5094722;28;20299;-73
2023/08/10 04:42:51;;;;;;;;;;;16.10;76.90;;;;;;5094662;28;19920;-72
2023/08/10 04:45:17;;;;;;;;;;;16.10;77.00;;;;;;5094702;28;19938;-74
2023/08/10 04:47:42;;;;;;;;;;;16.20;77.00;;;;;;5094630;28;19916;-73
2023/08/10 04:50:09;;;;;;;;;;;16.20;77.00;;;;;;5076531;28;20268;-74
2023/08/10 04:52:34;;;;;;;;;;;16.20;77.00;;;;;;5094293;28;20295;-74
2023/08/10 04:55:00;;;;;;;;;;;16.20;77.00;;;;;;5094306;28;19920;-74
2023/08/10 04:57:26;;;;;;;;;;;16.30;77.00;;;;;;5073334;28;19920;-73
2023/08/10 04:59:52;;;;;;;;;;;16.30;77.00;;;;;;5076281;28;19912;-74
2023/08/10 05:02:17;;;;;;;;;;;16.30;77.00;;;;;;5094610;28;19963;-73
2023/08/10 05:04:43;;;;;;;;;;;16.30;76.90;;;;;;5094260;28;19912;-73
2023/08/10 05:07:08;;;;;;;;;;;16.40;76.90;;;;;;5076135;28;19916;-73
2023/08/10 05:09:34;;;;;;;;;;;16.40;76.90;;;;;;5075308;28;19912;-74
2023/08/10 05:12:00;;;;;;;;;;;16.40;76.90;;;;;;5075994;28;19919;-73
2023/08/10 05:14:25;;;;;;;;;;;16.40;76.90;;;;;;5075180;28;20273;-73
2023/08/10 05:16:51;;;;;;;;;;;16.40;76.90;;;;;;5076109;28;19912;-73
2023/08/10 05:19:16;;;;;;;;;;;16.50;77.00;;;;;;5075648;28;19919;-73
2023/08/10 05:21:42;;;;;;;;;;;16.50;76.90;;;;;;5093861;28;19944;-73
2023/08/10 05:24:07;;;;;;;;;;;16.50;76.80;;;;;;5075759;28;19935;-73
2023/08/10 05:26:33;;;;;;;;;;;16.50;76.90;;;;;;5075733;28;20336;-72
2023/08/10 05:28:58;;;;;;;;;;;16.50;76.90;;;;;;5093840;28;20002;-73
2023/08/10 05:31:24;;;;;;;;;;;16.50;76.90;;;;;;5075655;28;19919;-73
2023/08/10 05:33:49;;;;;;;;;;;16.50;76.90;;;;;;5093992;28;19912;-73
2023/08/10 05:36:15;;;;;;;;;;;16.50;77.00;;;;;;5093792;28;19916;-73
2023/08/10 05:38:40;;;;;;;;;;;16.50;77.00;;;;;;5075485;28;19955;-74
2023/08/10 05:41:06;;;;;;;;;;;16.50;77.00;;;;;;5075480;28;19999;-74
2023/08/10 05:43:32;;;;;;;;;;;16.50;77.00;;;;;;5075401;28;19920;-73
2023/08/10 05:45:57;;;;;;;;;;;16.50;77.00;;;;;;5087224;28;19916;-73
2023/08/10 05:48:22;;;;;;;;;;;16.50;77.00;;;;;;5075288;28;19912;-73
2023/08/10 05:50:48;;;;;;;;;;;16.50;76.80;;;;;;5075172;28;20260;-72
2023/08/10 05:53:14;;;;;;;;;;;16.60;76.80;;;;;;5075074;28;19916;-72
2023/08/10 05:55:40;;;;;;;;;;;16.50;76.80;;;;;;5075048;28;19927;-72
2023/08/10 05:58:05;;;;;;;;;;;16.50;76.90;;;;;;5074856;28;19912;-72
2023/08/10 06:00:31;;;;;;;;;;;16.50;76.80;;;;;;5092886;28;19998;-72
2023/08/10 06:02:56;;;;;;;;;;;16.60;76.80;;;;;;5075207;28;19920;-73
2023/08/10 06:05:22;;;;;;;;;;;16.60;76.80;;;;;;5093013;28;19920;-73
2023/08/10 06:07:47;;;;;;;;;;;16.60;76.70;;;;;;5093052;28;20420;-73
2023/08/10 06:10:14;;;;;;;;;;;16.70;76.70;;;;;;5092866;28;19920;-74
2023/08/10 06:12:41;;;;;;;;;;;16.70;76.70;;;;;;5074709;28;20014;-75
2023/08/10 06:15:08;;;;;;;;;;;16.70;76.60;;;;;;5074759;28;20440;-73
2023/08/10 06:17:33;;;;;;;;;;;16.70;76.60;;;;;;5092947;28;20363;-74
2023/08/10 06:19:58;;;;;;;;;;;16.70;76.50;;;;;;5074626;28;19912;-73
2023/08/10 06:22:24;;;;;;;;;;;16.80;76.50;;;;;;5092692;28;19920;-73
2023/08/10 06:24:50;;;;;;;;;;;16.80;76.50;;;;;;5074626;28;19931;-73
2023/08/10 06:27:15;;;;;;;;;;;16.80;76.50;;;;;;5092658;28;20388;-73
2023/08/10 06:29:41;;;;;;;;;;;16.80;76.40;;;;;;5074489;28;19913;-73
2023/08/10 06:32:07;;;;;;;;;;;16.80;76.40;;;;;;5074571;28;19990;-73
2023/08/10 06:34:33;;;;;;;;;;;16.80;76.30;;;;;;5092543;28;19919;-73
2023/08/10 06:36:59;;;;;;;;;;;16.90;76.40;;;;;;5074667;28;19912;-73
2023/08/10 06:39:27;;;;;;;;;;;16.90;76.30;;;;;;5074410;28;19956;-73
2023/08/10 06:41:53;;;;;;;;;;;17.00;76.30;;;;;;5074328;28;19912;-74
2023/08/10 06:44:19;;;;;;;;;;;17.00;76.20;;;;;;5092681;28;19920;-73
2023/08/10 06:46:44;;;;;;;;;;;17.00;76.20;;;;;;5093138;28;19913;-81
2023/08/10 06:49:11;;;;;;;;;;;17.10;76.20;;;;;;5080126;28;20390;-83
2023/08/10 06:51:37;;;;;;;;;;;17.10;76.10;;;;;;5079722;28;19924;-82
2023/08/10 06:54:02;;;;;;;;;;;17.10;76.00;;;;;;5079148;28;19949;-82
2023/08/10 06:56:29;;;;;;;;;;;17.10;76.00;;;;;;5078999;28;19920;-82
2023/08/10 06:58:54;;;;;;;;;;;17.10;76.00;;;;;;5079027;28;19912;-83
2023/08/10 07:01:20;;;;;;;;;;;17.20;76.00;;;;;;5078474;28;19981;-85
2023/08/10 07:03:45;;;;;;;;;;;17.20;75.90;;;;;;5096391;28;19919;-83
2023/08/10 07:06:11;;;;;;;;;;;17.20;75.90;;;;;;5096317;28;19912;-80
2023/08/10 07:08:36;;;;;;;;;;;17.30;75.80;;;;;;5078025;28;19962;-81
2023/08/10 07:11:02;;;;;;;;;;;17.30;75.70;;;;;;5095374;28;20417;-80
2023/08/10 07:13:28;;;;;;;;;;;17.30;75.70;;;;;;5094749;28;19912;-82
2023/08/10 07:15:54;;;;;;;;;;;17.40;75.60;;;;;;5076813;28;19923;-81
2023/08/10 07:18:19;;;;;;;;;;;17.40;75.50;;;;;;5094902;28;19912;-81
2023/08/10 07:20:45;;;;;;;;;;;17.40;75.40;;;;;;5076484;28;19912;-83
2023/08/10 07:23:11;;;;;;;;;;;17.50;75.30;;;;;;5095475;28;19912;-83
2023/08/10 07:25:37;;;;;;;;;;;17.50;75.20;;;;;;5095729;28;19923;-80
2023/08/10 07:28:05;;;;;;;;;;;17.50;75.10;;;;;;5074555;28;19965;-85
2023/08/10 07:30:30;;;;;;;;;;;17.50;75.00;;;;;;5074646;28;19913;-83
2023/08/10 07:32:56;;;;;;;;;;;17.60;75.00;;;;;;5094173;28;19923;-84
2023/08/10 07:35:23;;;;;;;;;;;17.60;74.90;;;;;;5081174;28;19916;-83
2023/08/10 07:37:49;;;;;;;;;;;17.70;74.80;;;;;;5097067;28;19995;-84
2023/08/10 07:40:15;;;;;;;;;;;17.80;74.80;;;;;;5096391;28;20004;-82
2023/08/10 07:42:40;;;;;;;;;;;17.80;74.70;;;;;;5078639;28;20007;-84
2023/08/10 07:45:09;;;;;;;;;;;17.80;74.50;;;;;;5078823;28;19931;-86
2023/08/10 07:47:35;;;;;;;;;;;18.00;74.50;;;;;;5078947;28;19912;-84
2023/08/10 07:50:01;;;;;;;;;;;18.00;74.30;;;;;;5078706;28;19920;-82
2023/08/10 07:52:26;;;;;;;;;;;18.00;74.10;;;;;;5096514;28;19912;-81
2023/08/10 07:54:52;;;;;;;;;;;18.10;74.10;;;;;;5077926;28;20402;-81
2023/08/10 07:57:17;;;;;;;;;;;18.10;73.90;;;;;;5096404;28;20019;-75
2023/08/10 07:59:43;;;;;;;;;;;18.20;74.50;;;;;;5052180;28;19944;-75
2023/08/10 08:02:08;;;;;;;;;;;18.20;73.80;;;;;;5035846;28;19916;-81
2023/08/10 08:04:33;;;;;;;;;;;18.30;73.70;;;;;;5053691;28;19913;-81
2023/08/10 08:06:59;;;;;;;;;;;18.30;73.50;;;;;;5053586;28;19913;-81
2023/08/10 08:09:26;;;;;;;;;;;18.30;73.20;;;;;;5052578;28;19915;-81
2023/08/10 08:11:51;;;;;;;;;;;18.40;73.20;;;;;;5036603;28;19909;-83
2023/08/10 08:14:17;;;;;;;;;;;18.40;73.10;;;;;;5053479;28;19909;-85
2023/08/10 08:16:42;;;;;;;;;;;18.40;72.80;;;;;;5036786;28;19920;-81
2023/08/10 08:19:08;;;;;;;;;;;18.50;72.90;;;;;;5056535;28;20384;-82
2023/08/10 08:21:33;;;;;;;;;;;18.50;72.80;;;;;;5053758;28;19909;-84
2023/08/10 08:24:00;;;;;;;;;;;18.60;72.40;;;;;;5037717;28;19909;-81
2023/08/10 08:26:26;;;;;;;;;;;18.70;72.20;;;;;;5037696;28;20403;-81
2023/08/10 08:28:52;;;;;;;;;;;18.80;72.20;;;;;;5037033;28;19947;-82
2023/08/10 08:31:18;;;;;;;;;;;18.90;72.10;;;;;;5067230;28;19936;-83
2023/08/10 08:33:44;;;;;;;;;;;18.90;71.90;;;;;;5076892;28;19960;-81
2023/08/10 08:36:10;;;;;;;;;;;19.00;71.90;;;;;;5076384;28;20002;-82
2023/08/10 08:38:36;;;;;;;;;;;19.10;71.80;;;;;;5093953;28;19915;-82
2023/08/10 08:41:05;;;;;;;;;;;19.20;71.10;;;;;;5076486;28;19909;-84
2023/08/10 08:43:32;;;;;;;;;;;19.20;71.20;;;;;;5092188;28;20394;-83
2023/08/10 08:45:57;;;;;;;;;;;19.30;71.20;;;;;;5076348;28;19908;-82
2023/08/10 08:48:23;;;;;;;;;;;19.30;70.80;;;;;;5095841;28;20008;-83
2023/08/10 08:50:49;;;;;;;;;;;19.40;70.60;;;;;;5095600;28;19909;-84
2023/08/10 08:53:15;;;;;;;;;;;19.40;70.30;;;;;;5091550;28;19921;-82
2023/08/10 08:55:41;;;;;;;;;;;19.50;70.20;;;;;;5095140;28;19962;-83
2023/08/10 08:58:06;;;;;;;;;;;19.60;70.20;;;;;;5076805;28;19912;-81
2023/08/10 09:00:32;;;;;;;;;;;19.70;69.50;;;;;;5076913;28;19958;-81
2023/08/10 09:02:58;;;;;;;;;;;19.80;69.30;;;;;;5052318;28;19909;-81
2023/08/10 09:05:23;;;;;;;;;;;19.90;68.80;;;;;;5035903;28;19913;-80
2023/08/10 09:07:52;;;;;;;;;;;20.00;68.80;;;;;;5035417;28;20380;-74
2023/08/10 09:10:18;;;;;;;;;;;20.10;68.40;;;;;;5051800;28;20822;-74
2023/08/10 09:12:44;;;;;;;;;;;20.20;68.30;;;;;;5034976;28;19916;-74
2023/08/10 09:15:14;;;;;;;;;;;20.30;68.00;;;;;;5035045;28;19912;-75
2023/08/10 09:17:46;;;;;;;;;;;20.30;67.60;;;;;;5032366;28;20427;-75
2023/08/10 09:20:24;;;;;;;;;;;20.30;67.60;;;;;;5034929;28;19916;-74
2023/08/10 09:22:51;;;;;;;;;;;20.30;67.80;;;;;;5035047;28;19909;-74
2023/08/10 09:25:16;;;;;;;;;;;20.30;67.90;;;;;;5051636;28;19913;-74
2023/08/10 09:27:42;;;;;;;;;;;20.30;67.90;;;;;;5051796;28;19920;-74
2023/08/10 09:30:08;;;;;;;;;;;20.30;67.90;;;;;;5034803;28;19932;-74
2023/08/10 09:32:34;;;;;;;;;;;20.20;67.90;;;;;;5051654;28;19909;-74
2023/08/10 09:35:00;;;;;;;;;;;20.30;68.10;;;;;;5090980;28;20062;-75
2023/08/10 09:37:25;;;;;;;;;;;20.30;68.00;;;;;;5075670;28;19951;-75
2023/08/10 09:40:00;;;;;;;;;;;20.40;68.60;;;;;;5075181;28;19912;-75
2023/08/10 09:42:29;;;;;;;;;;;20.50;67.80;;;;;;5072389;28;20295;-75
2023/08/10 09:44:54;;;;;;;;;;;20.60;67.80;;;;;;5075417;28;19908;-74
2023/08/10 09:47:20;;;;;;;;;;;20.60;67.40;;;;;;5093473;28;19908;-75
2023/08/10 09:49:55;;;;;;;;;;;20.60;67.40;;;;;;5075206;28;20707;-75
2023/08/10 09:52:21;;;;;;;;;;;20.50;67.50;;;;;;5074967;28;19966;-75
2023/08/10 09:54:48;;;;;;;;;;;20.60;67.40;;;;;;5075142;28;19959;-76
2023/08/10 09:57:14;;;;;;;;;;;20.50;65.10;;;;;;5075009;28;19915;-75
2023/08/10 09:59:40;;;;;;;;;;;20.60;66.60;;;;;;5074791;28;19908;-76
2023/08/10 10:02:08;;;;;;;;;;;20.60;66.60;;;;;;5093455;28;20469;-75
2023/08/10 10:04:34;;;;;;;;;;;20.60;66.20;;;;;;5075132;28;20003;-75
2023/08/10 10:07:00;;;;;;;;;;;20.70;66.20;;;;;;5075062;28;19945;-75
2023/08/10 10:09:26;;;;;;;;;;;20.70;66.30;;;;;;5075280;28;19908;-76
2023/08/10 10:11:54;;;;;;;;;;;20.80;66.30;;;;;;5089952;28;20287;-75
2023/08/10 10:14:20;;;;;;;;;;;20.90;66.20;;;;;;5075260;28;19908;-75
2023/08/10 10:16:45;;;;;;;;;;;21.00;66.00;;;;;;5074941;28;20395;-75
2023/08/10 10:19:11;;;;;;;;;;;21.20;65.90;;;;;;5092964;28;19909;-80
2023/08/10 10:21:36;;;;;;;;;;;21.20;65.50;;;;;;5074589;28;20018;-79
2023/08/10 10:24:03;;;;;;;;;;;21.30;65.50;;;;;;5092852;28;19908;-78
2023/08/10 10:26:29;;;;;;;;;;;21.40;65.10;;;;;;5074645;28;19909;-78
2023/08/10 10:29:15;;;;;;;;;;;21.40;65.10;;;;;;5093229;28;19954;-78
2023/08/10 10:31:41;;;;;;;;;;;21.50;65.00;;;;;;5074541;28;19962;-78
2023/08/10 10:34:10;;;;;;;;;;;21.60;65.10;;;;;;5074809;28;19916;-77
2023/08/10 10:36:38;;;;;;;;;;;21.70;65.20;;;;;;5074560;28;20002;-78
2023/08/10 10:39:07;;;;;;;;;;;21.70;65.00;;;;;;5092804;28;19908;-78
2023/08/10 10:41:36;;;;;;;;;;;21.70;65.10;;;;;;5074631;28;19912;-78
2023/08/10 10:44:05;;;;;;;;;;;21.80;64.40;;;;;;5074644;28;19959;-78
2023/08/10 10:46:33;;;;;;;;;;;21.80;63.40;;;;;;5074516;28;20256;-78
2023/08/10 10:48:59;;;;;;;;;;;21.80;64.30;;;;;;5074607;28;19919;-78
2023/08/10 10:51:25;;;;;;;;;;;21.90;64.50;;;;;;5074623;28;19909;-79
2023/08/10 10:53:54;;;;;;;;;;;21.90;64.20;;;;;;5092655;28;19916;-79
2023/08/10 10:56:24;;;;;;;;;;;21.90;64.30;;;;;;5092623;28;19986;-78
2023/08/10 10:58:49;;;;;;;;;;;21.90;64.50;;;;;;5074375;28;20382;-78
2023/08/10 11:01:21;;;;;;;;;;;21.90;64.30;;;;;;5074600;28;20054;-79
2023/08/10 11:03:54;;;;;;;;;;;22.00;64.40;;;;;;5071873;28;19956;-79
2023/08/10 11:06:20;;;;;;;;;;;22.00;64.40;;;;;;5074791;28;19962;-79
2023/08/10 11:08:51;;;;;;;;;;;22.10;63.70;;;;;;5076484;28;19908;-78
2023/08/10 11:11:17;;;;;;;;;;;22.10;63.40;;;;;;5096811;28;19912;-79
2023/08/10 11:13:42;;;;;;;;;;;22.10;63.30;;;;;;5096557;28;20374;-79
2023/08/10 11:16:09;;;;;;;;;;;22.20;63.20;;;;;;5096304;28;20015;-81
2023/08/10 11:18:36;;;;;;;;;;;22.20;63.40;;;;;;5096825;28;19914;-79
2023/08/10 11:21:05;;;;;;;;;;;22.20;62.90;;;;;;5078232;28;19915;-78
2023/08/10 11:23:30;;;;;;;;;;;22.30;62.90;;;;;;5096372;28;19909;-78
2023/08/10 11:25:57;;;;;;;;;;;22.30;62.80;;;;;;5078402;28;20213;-78
2023/08/10 11:28:23;;;;;;;;;;;22.40;62.80;;;;;;5096843;28;19958;-78
2023/08/10 11:30:49;;;;;;;;;;;22.50;62.60;;;;;;5078281;28;19908;-77
2023/08/10 11:33:14;;;;;;;;;;;22.50;61.70;;;;;;5077880;28;20347;-75
2023/08/10 11:35:42;;;;;;;;;;;22.50;61.90;;;;;;5077699;28;19912;-77
2023/08/10 11:38:09;;;;;;;;;;;22.50;62.10;;;;;;5077915;28;19909;-77
2023/08/10 11:40:35;;;;;;;;;;;22.50;62.10;;;;;;5077954;28;19935;-77
2023/08/10 11:43:10;;;;;;;;;;;22.60;62.10;;;;;;5077653;28;20015;-77
2023/08/10 11:45:36;;;;;;;;;;;22.70;61.70;;;;;;5096155;28;19968;-78
2023/08/10 11:48:06;;;;;;;;;;;22.90;61.10;;;;;;5077896;28;20045;-76
2023/08/10 11:50:31;;;;;;;;;;;23.00;61.50;;;;;;5077780;28;19909;-77
2023/08/10 11:53:07;;;;;;;;;;;23.10;61.60;;;;;;5095709;28;19923;-76
2023/08/10 11:55:33;;;;;;;;;;;23.20;61.50;;;;;;5096255;28;19916;-77
2023/08/10 11:58:00;;;;;;;;;;;23.30;61.40;;;;;;5077425;28;19915;-77
2023/08/10 12:00:33;;;;;;;;;;;23.40;61.40;;;;;;5095806;28;20307;-76
2023/08/10 12:03:12;;;;;;;;;;;23.50;61.20;;;;;;5095469;28;19985;-76
2023/08/10 12:05:45;;;;;;;;;;;23.50;61.00;;;;;;5077385;28;20274;-77
2023/08/10 12:08:12;;;;;;;;;;;23.60;60.90;;;;;;5077354;28;19947;-76
2023/08/10 12:10:39;;;;;;;;;;;23.50;60.80;;;;;;5095450;28;19974;-76
2023/08/10 12:13:05;;;;;;;;;;;23.60;60.50;;;;;;5095413;28;19914;-76
2023/08/10 12:15:36;;;;;;;;;;;23.60;60.60;;;;;;5077335;28;20086;-77
2023/08/10 12:18:01;;;;;;;;;;;23.60;60.40;;;;;;5095539;28;19962;-77
2023/08/10 12:20:27;;;;;;;;;;;23.60;60.30;;;;;;5076949;28;19908;-77
2023/08/10 12:22:53;;;;;;;;;;;23.60;60.50;;;;;;5077149;28;19915;-76
2023/08/10 12:25:22;;;;;;;;;;;23.70;60.20;;;;;;5077346;28;19922;-76
2023/08/10 12:27:47;;;;;;;;;;;23.70;59.90;;;;;;5088904;28;19912;-76
2023/08/10 12:30:14;;;;;;;;;;;23.90;60.00;;;;;;5095233;28;19933;-77
2023/08/10 12:32:39;;;;;;;;;;;24.00;59.90;;;;;;5076768;28;19916;-77
2023/08/10 12:35:06;;;;;;;;;;;24.20;59.70;;;;;;5077089;28;19912;-76
2023/08/10 12:37:32;;;;;;;;;;;24.30;59.40;;;;;;5077469;28;19915;-83
2023/08/10 12:39:57;;;;;;;;;;;24.30;59.60;;;;;;5078302;28;20010;-78
2023/08/10 12:42:26;;;;;;;;;;;24.20;59.70;;;;;;5078663;28;19916;-78
2023/08/10 12:44:51;;;;;;;;;;;24.10;59.80;;;;;;5097635;28;20290;-79
2023/08/10 12:47:17;;;;;;;;;;;24.10;60.10;;;;;;5076387;28;20002;-79
2023/08/10 12:49:43;;;;;;;;;;;24.10;60.00;;;;;;5076592;28;19912;-78
2023/08/10 12:52:09;;;;;;;;;;;24.20;60.00;;;;;;5097292;28;20011;-78
2023/08/10 12:54:34;;;;;;;;;;;24.30;60.00;;;;;;5098004;28;19912;-79
2023/08/10 12:57:00;;;;;;;;;;;24.50;59.80;;;;;;5098965;28;19920;-79
2023/08/10 12:59:25;;;;;;;;;;;24.60;59.60;;;;;;5099521;28;19920;-78
2023/08/10 13:01:52;;;;;;;;;;;24.70;59.10;;;;;;5081224;28;19912;-78
2023/08/10 13:04:17;;;;;;;;;;;24.80;58.70;;;;;;5099788;28;19912;-77
2023/08/10 13:06:43;;;;;;;;;;;24.80;59.00;;;;;;5101154;28;19982;-78
2023/08/10 13:09:09;;;;;;;;;;;24.90;59.00;;;;;;5101182;28;19913;-80
2023/08/10 13:11:36;;;;;;;;;;;25.10;59.00;;;;;;5082493;28;20386;-77
2023/08/10 13:14:02;;;;;;;;;;;25.20;58.50;;;;;;5101657;28;19912;-78
2023/08/10 13:16:27;;;;;;;;;;;25.20;58.60;;;;;;5094860;28;19982;-78
2023/08/10 13:18:53;;;;;;;;;;;25.30;58.50;;;;;;5099186;28;19916;-77
2023/08/10 13:21:18;;;;;;;;;;;25.30;58.70;;;;;;5116448;28;19916;-77
2023/08/10 13:23:44;;;;;;;;;;;25.40;58.70;;;;;;5097035;28;19950;-78
2023/08/10 13:26:10;;;;;;;;;;;25.40;58.60;;;;;;5115769;28;19912;-79
2023/08/10 13:28:35;;;;;;;;;;;25.40;58.60;;;;;;5097301;28;20330;-77
2023/08/10 13:31:01;;;;;;;;;;;25.50;58.60;;;;;;5097286;28;19916;-77
2023/08/10 13:33:28;;;;;;;;;;;25.70;58.10;;;;;;5097673;28;19907;-77
2023/08/10 13:35:53;;;;;;;;;;;25.90;57.90;;;;;;5097059;28;19931;-77
2023/08/10 13:38:19;;;;;;;;;;;26.00;57.60;;;;;;5095517;28;19912;-78
2023/08/10 13:40:45;;;;;;;;;;;26.10;57.60;;;;;;5113692;28;19912;-78
2023/08/10 13:43:10;;;;;;;;;;;26.10;57.70;;;;;;5113384;28;20010;-78
2023/08/10 13:45:36;;;;;;;;;;;26.10;57.80;;;;;;5113357;28;19912;-78
2023/08/10 13:48:03;;;;;;;;;;;26.10;57.70;;;;;;5110552;28;19912;-77
2023/08/10 13:50:29;;;;;;;;;;;26.10;57.50;;;;;;5082385;28;20299;-77
2023/08/10 13:52:55;;;;;;;;;;;26.10;57.70;;;;;;5100504;28;19916;-76
2023/08/10 13:55:20;;;;;;;;;;;26.10;57.60;;;;;;5083228;28;20407;-77
2023/08/10 13:57:46;;;;;;;;;;;26.30;57.50;;;;;;5100048;28;19995;-76
2023/08/10 14:00:14;;;;;;;;;;;26.50;57.40;;;;;;5080898;28;19947;-76
2023/08/10 14:02:39;;;;;;;;;;;26.70;57.20;;;;;;5081465;28;19913;-76
2023/08/10 14:05:06;;;;;;;;;;;26.80;56.70;;;;;;5078354;28;20282;-77
2023/08/10 14:07:31;;;;;;;;;;;26.80;56.90;;;;;;5081021;28;19975;-77
2023/08/10 14:09:57;;;;;;;;;;;26.90;56.70;;;;;;5081054;28;19913;-76
2023/08/10 14:12:22;;;;;;;;;;;26.90;56.20;;;;;;5080764;28;19961;-77